Ad Darbasiyah, Syria

10:09 PM EET on November 24, 2017 (GMT +0200)
Diyarbakir | | Change Station

Elev 2221 ft 37.88 °N, 40.20 °E | Updated 19 minutes ago

Clear
Clear
43 °F
Feels Like 40 °F
N
5
Wind Variable Wind from WNW

Today
High -- | Low -- °F
--% Chance of Precip.
Yesterday
High -- | Low -- °F
Precip. -- in
Pressure 30.18 in
Visibility 6.2 miles
Clouds Scattered Clouds 4000 ft
Windchill 40 °F
Dew Point 34 °F
Humidity 70%
Rainfall 0.00 in
Snow Depth Not available.
6:05 AM 4:02 PM
Waxing Crescent, 32% visible
METAR LTCC 241950Z 30004KT 9999 SCT040 06/01 Q1022 NOSIG RMK RWY16 29002KT
Pressure 30.18 in
Visibility 6.2 miles
Clouds Scattered Clouds 4000 ft
Windchill 40 °F
Dew Point 34 °F
Humidity 70%
Rainfall 0.00 in
Snow Depth Not available.
6:05 AM 4:02 PM
Waxing Crescent, 32% visible
METAR LTCC 241950Z 30004KT 9999 SCT040 06/01 Q1022 NOSIG RMK RWY16 29002KT

Get Severe Weather Alerts

Thanks for signing up!

Be on the lookout for a verification email in your inbox.

You'll start receiving the daily forecast at 6 AM.

×

10-Day Weather Forecast

No radar image for this location.
×

Almanac

Astronomy

Nov. 24, 2017 Rise Set
Actual Time
Civil Twilight
Nautical Twilight
Astronomical Twilight
Moon
Length of Visible Light
Length of Day
Tomorrow will be .
, % of the Moon is Illuminated

Today's Extremes

Country Highs Country Lows

Community

WunderPhotos

Category 6

Welcome to Category 6. This is the collective home for Weather Underground's featured writeups by Dr. Jeff Masters (right), Bob Henson (left), Chris Burt, and other regular contributors.

Nearby

Air Quality

  Air Quality AQ Index Pollutant
Not available.

Snow Depth

Station Depth Elevation

Earthquake Activity

City Distance Mag. Time & Date
Minimum magnitude displayed is 2.5.

Coastal Water Temperatures

Place Temperature

Stations

Nearby Weather Stations

Station Location Temp. Windchill Dew Point Humidity Wind Precip. Elev Updated Type